sensor_id;sensor_type;location;lat;lon;timestamp;temperature;humidity
34815;DHT22;21030;53.912;15.214;2023-08-31T00:00:50;39.70;28.30
34815;DHT22;21030;53.912;15.214;2023-08-31T00:03:20;39.70;28.20
34815;DHT22;21030;53.912;15.214;2023-08-31T00:05:47;39.70;28.30
34815;DHT22;21030;53.912;15.214;2023-08-31T00:08:18;39.70;28.20
34815;DHT22;21030;53.912;15.214;2023-08-31T00:10:45;39.60;28.30
34815;DHT22;21030;53.912;15.214;2023-08-31T00:13:12;39.60;28.50
34815;DHT22;21030;53.912;15.214;2023-08-31T00:15:39;39.50;28.60
34815;DHT22;21030;53.912;15.214;2023-08-31T00:18:08;39.50;28.50
34815;DHT22;21030;53.912;15.214;2023-08-31T00:20:37;39.50;28.60
34815;DHT22;21030;53.912;15.214;2023-08-31T00:23:04;39.50;28.50
34815;DHT22;21030;53.912;15.214;2023-08-31T00:25:31;39.60;28.50
34815;DHT22;21030;53.912;15.214;2023-08-31T00:27:58;39.50;28.60
34815;DHT22;21030;53.912;15.214;2023-08-31T00:30:31;39.50;28.50
34815;DHT22;21030;53.912;15.214;2023-08-31T00:32:59;39.30;28.60
34815;DHT22;21030;53.912;15.214;2023-08-31T00:35:27;39.20;28.60
34815;DHT22;21030;53.912;15.214;2023-08-31T00:37:55;39.30;28.70
34815;DHT22;21030;53.912;15.214;2023-08-31T00:40:26;39.20;28.70
34815;DHT22;21030;53.912;15.214;2023-08-31T00:42:53;39.20;28.80
34815;DHT22;21030;53.912;15.214;2023-08-31T00:45:20;39.20;28.80
34815;DHT22;21030;53.912;15.214;2023-08-31T00:47:49;39.20;28.80
34815;DHT22;21030;53.912;15.214;2023-08-31T00:50:16;39.30;28.70
34815;DHT22;21030;53.912;15.214;2023-08-31T00:52:44;39.30;28.70
34815;DHT22;21030;53.912;15.214;2023-08-31T00:55:11;39.10;28.80
34815;DHT22;21030;53.912;15.214;2023-08-31T00:57:38;39.00;28.80
34815;DHT22;21030;53.912;15.214;2023-08-31T01:00:06;39.00;28.80
34815;DHT22;21030;53.912;15.214;2023-08-31T01:03:09;39.10;28.70
34815;DHT22;21030;53.912;15.214;2023-08-31T01:08:19;39.10;28.70
34815;DHT22;21030;53.912;15.214;2023-08-31T01:11:34;39.10;28.70
34815;DHT22;21030;53.912;15.214;2023-08-31T01:14:02;39.20;28.60
34815;DHT22;21030;53.912;15.214;2023-08-31T01:16:35;39.00;28.60
34815;DHT22;21030;53.912;15.214;2023-08-31T01:19:08;39.00;28.60
34815;DHT22;21030;53.912;15.214;2023-08-31T01:21:45;39.10;28.60
34815;DHT22;21030;53.912;15.214;2023-08-31T01:24:13;39.00;28.60
34815;DHT22;21030;53.912;15.214;2023-08-31T01:26:40;39.00;28.60
34815;DHT22;21030;53.912;15.214;2023-08-31T01:29:08;38.80;28.60
34815;DHT22;21030;53.912;15.214;2023-08-31T01:31:42;38.80;28.50
34815;DHT22;21030;53.912;15.214;2023-08-31T01:34:10;38.90;28.50
34815;DHT22;21030;53.912;15.214;2023-08-31T01:36:42;38.90;28.50
34815;DHT22;21030;53.912;15.214;2023-08-31T01:39:24;38.70;28.50
34815;DHT22;21030;53.912;15.214;2023-08-31T01:41:58;38.20;28.70
34815;DHT22;21030;53.912;15.214;2023-08-31T01:44:25;38.30;28.80
34815;DHT22;21030;53.912;15.214;2023-08-31T01:46:53;38.10;28.80
34815;DHT22;21030;53.912;15.214;2023-08-31T01:49:21;38.00;28.90
34815;DHT22;21030;53.912;15.214;2023-08-31T01:51:48;38.20;29.10
34815;DHT22;21030;53.912;15.214;2023-08-31T01:54:15;38.50;28.90
34815;DHT22;21030;53.912;15.214;2023-08-31T01:56:42;38.80;28.70
34815;DHT22;21030;53.912;15.214;2023-08-31T01:59:09;38.80;28.40
34815;DHT22;21030;53.912;15.214;2023-08-31T02:01:36;39.00;28.40
34815;DHT22;21030;53.912;15.214;2023-08-31T02:04:04;39.10;28.30
34815;DHT22;21030;53.912;15.214;2023-08-31T02:06:31;39.10;28.20
34815;DHT22;21030;53.912;15.214;2023-08-31T02:08:58;39.10;28.20
34815;DHT22;21030;53.912;15.214;2023-08-31T02:11:25;39.10;28.20
34815;DHT22;21030;53.912;15.214;2023-08-31T02:13:52;39.10;28.10
34815;DHT22;21030;53.912;15.214;2023-08-31T02:16:19;39.10;28.10
34815;DHT22;21030;53.912;15.214;2023-08-31T02:18:46;39.10;28.10
34815;DHT22;21030;53.912;15.214;2023-08-31T02:21:13;39.00;28.00
34815;DHT22;21030;53.912;15.214;2023-08-31T02:23:40;39.00;28.10
34815;DHT22;21030;53.912;15.214;2023-08-31T02:26:07;39.00;28.10
34815;DHT22;21030;53.912;15.214;2023-08-31T02:28:34;39.00;28.10
34815;DHT22;21030;53.912;15.214;2023-08-31T02:31:02;38.90;28.30
34815;DHT22;21030;53.912;15.214;2023-08-31T02:33:29;38.90;28.20
34815;DHT22;21030;53.912;15.214;2023-08-31T02:35:56;38.80;28.20
34815;DHT22;21030;53.912;15.214;2023-08-31T02:38:23;38.70;28.10
34815;DHT22;21030;53.912;15.214;2023-08-31T02:40:50;38.60;28.30
34815;DHT22;21030;53.912;15.214;2023-08-31T02:43:18;38.70;28.40
34815;DHT22;21030;53.912;15.214;2023-08-31T02:45:45;38.70;28.30
34815;DHT22;21030;53.912;15.214;2023-08-31T02:48:13;38.60;28.30
34815;DHT22;21030;53.912;15.214;2023-08-31T02:50:40;38.40;28.40
34815;DHT22;21030;53.912;15.214;2023-08-31T02:53:07;38.00;28.80
34815;DHT22;21030;53.912;15.214;2023-08-31T02:55:34;37.90;29.00
34815;DHT22;21030;53.912;15.214;2023-08-31T02:58:01;37.80;28.90
34815;DHT22;21030;53.912;15.214;2023-08-31T03:00:29;37.50;29.20
34815;DHT22;21030;53.912;15.214;2023-08-31T03:02:56;37.40;29.20
34815;DHT22;21030;53.912;15.214;2023-08-31T03:05:23;37.70;29.10
34815;DHT22;21030;53.912;15.214;2023-08-31T03:07:50;37.80;29.00
34815;DHT22;21030;53.912;15.214;2023-08-31T03:10:17;37.90;28.70
34815;DHT22;21030;53.912;15.214;2023-08-31T03:12:44;37.90;28.90
34815;DHT22;21030;53.912;15.214;2023-08-31T03:15:11;38.00;28.70
34815;DHT22;21030;53.912;15.214;2023-08-31T03:17:38;38.20;28.60
34815;DHT22;21030;53.912;15.214;2023-08-31T03:20:06;38.10;28.50
34815;DHT22;21030;53.912;15.214;2023-08-31T03:22:33;38.10;28.50
34815;DHT22;21030;53.912;15.214;2023-08-31T03:25:00;38.00;29.00
34815;DHT22;21030;53.912;15.214;2023-08-31T03:27:27;38.20;28.50
34815;DHT22;21030;53.912;15.214;2023-08-31T03:29:54;38.30;28.40
34815;DHT22;21030;53.912;15.214;2023-08-31T03:32:22;38.40;28.30
34815;DHT22;21030;53.912;15.214;2023-08-31T03:34:49;38.50;28.30
34815;DHT22;21030;53.912;15.214;2023-08-31T03:37:16;38.50;28.10
34815;DHT22;21030;53.912;15.214;2023-08-31T03:39:44;38.60;28.10
34815;DHT22;21030;53.912;15.214;2023-08-31T03:42:13;38.40;28.10
34815;DHT22;21030;53.912;15.214;2023-08-31T03:44:40;38.40;28.20
34815;DHT22;21030;53.912;15.214;2023-08-31T03:47:08;38.50;28.00
34815;DHT22;21030;53.912;15.214;2023-08-31T03:49:35;38.70;28.00
34815;DHT22;21030;53.912;15.214;2023-08-31T03:52:02;38.50;28.00
34815;DHT22;21030;53.912;15.214;2023-08-31T03:54:30;38.70;28.00
34815;DHT22;21030;53.912;15.214;2023-08-31T03:56:57;38.80;28.00
34815;DHT22;21030;53.912;15.214;2023-08-31T03:59:24;38.80;27.90
34815;DHT22;21030;53.912;15.214;2023-08-31T04:01:51;38.90;27.90
34815;DHT22;21030;53.912;15.214;2023-08-31T04:04:18;38.90;27.80
34815;DHT22;21030;53.912;15.214;2023-08-31T04:06:45;38.90;27.70
34815;DHT22;21030;53.912;15.214;2023-08-31T04:09:12;39.00;27.80
34815;DHT22;21030;53.912;15.214;2023-08-31T04:11:39;38.90;27.80
34815;DHT22;21030;53.912;15.214;2023-08-31T04:14:06;38.90;27.80
34815;DHT22;21030;53.912;15.214;2023-08-31T04:16:33;38.80;27.70
34815;DHT22;21030;53.912;15.214;2023-08-31T04:19:00;38.70;27.80
34815;DHT22;21030;53.912;15.214;2023-08-31T04:21:27;38.50;28.00
34815;DHT22;21030;53.912;15.214;2023-08-31T04:23:54;38.40;28.10
34815;DHT22;21030;53.912;15.214;2023-08-31T04:26:22;38.50;28.10
34815;DHT22;21030;53.912;15.214;2023-08-31T04:28:50;38.30;28.20
34815;DHT22;21030;53.912;15.214;2023-08-31T04:31:17;38.10;28.20
34815;DHT22;21030;53.912;15.214;2023-08-31T04:33:45;37.70;28.50
34815;DHT22;21030;53.912;15.214;2023-08-31T04:36:14;38.00;28.40
34815;DHT22;21030;53.912;15.214;2023-08-31T04:38:41;38.20;28.30
34815;DHT22;21030;53.912;15.214;2023-08-31T04:41:08;38.00;28.20
34815;DHT22;21030;53.912;15.214;2023-08-31T04:43:36;37.90;28.30
34815;DHT22;21030;53.912;15.214;2023-08-31T04:46:03;37.90;28.50
34815;DHT22;21030;53.912;15.214;2023-08-31T04:48:31;38.20;28.40
34815;DHT22;21030;53.912;15.214;2023-08-31T04:50:58;37.90;28.50
34815;DHT22;21030;53.912;15.214;2023-08-31T04:53:25;37.90;28.30
34815;DHT22;21030;53.912;15.214;2023-08-31T04:55:52;37.10;28.70
34815;DHT22;21030;53.912;15.214;2023-08-31T04:58:19;37.30;28.90
34815;DHT22;21030;53.912;15.214;2023-08-31T05:00:47;37.90;28.80
34815;DHT22;21030;53.912;15.214;2023-08-31T05:03:14;37.90;28.60
34815;DHT22;21030;53.912;15.214;2023-08-31T05:05:42;38.00;28.70
34815;DHT22;21030;53.912;15.214;2023-08-31T05:08:10;38.30;28.60
34815;DHT22;21030;53.912;15.214;2023-08-31T05:10:37;38.50;28.40
34815;DHT22;21030;53.912;15.214;2023-08-31T05:13:04;38.50;28.30
34815;DHT22;21030;53.912;15.214;2023-08-31T05:15:31;38.50;28.30
34815;DHT22;21030;53.912;15.214;2023-08-31T05:18:00;38.60;28.20
34815;DHT22;21030;53.912;15.214;2023-08-31T05:20:28;38.60;28.10
34815;DHT22;21030;53.912;15.214;2023-08-31T05:22:58;38.40;28.10
34815;DHT22;21030;53.912;15.214;2023-08-31T05:25:25;38.30;28.10
34815;DHT22;21030;53.912;15.214;2023-08-31T05:27:54;38.40;28.30
34815;DHT22;21030;53.912;15.214;2023-08-31T05:30:21;38.50;28.20
34815;DHT22;21030;53.912;15.214;2023-08-31T05:32:48;38.50;28.30
34815;DHT22;21030;53.912;15.214;2023-08-31T05:35:15;38.70;28.30
34815;DHT22;21030;53.912;15.214;2023-08-31T05:37:42;38.70;28.10
34815;DHT22;21030;53.912;15.214;2023-08-31T05:40:09;38.80;28.10
34815;DHT22;21030;53.912;15.214;2023-08-31T05:42:37;38.80;28.00
34815;DHT22;21030;53.912;15.214;2023-08-31T05:45:05;38.90;27.90
34815;DHT22;21030;53.912;15.214;2023-08-31T05:47:32;39.10;28.00
34815;DHT22;21030;53.912;15.214;2023-08-31T05:49:59;39.10;27.90
34815;DHT22;21030;53.912;15.214;2023-08-31T05:52:27;39.00;27.70
34815;DHT22;21030;53.912;15.214;2023-08-31T05:54:54;39.10;27.80
34815;DHT22;21030;53.912;15.214;2023-08-31T05:57:22;39.20;27.90
34815;DHT22;21030;53.912;15.214;2023-08-31T05:59:49;38.70;27.90
34815;DHT22;21030;53.912;15.214;2023-08-31T06:02:16;38.90;27.80
34815;DHT22;21030;53.912;15.214;2023-08-31T06:04:43;39.10;27.90
34815;DHT22;21030;53.912;15.214;2023-08-31T06:07:10;39.00;28.10
34815;DHT22;21030;53.912;15.214;2023-08-31T06:09:37;39.10;27.80
34815;DHT22;21030;53.912;15.214;2023-08-31T06:12:05;38.90;27.80
34815;DHT22;21030;53.912;15.214;2023-08-31T06:14:33;38.80;28.10
34815;DHT22;21030;53.912;15.214;2023-08-31T06:17:00;38.90;28.00
34815;DHT22;21030;53.912;15.214;2023-08-31T06:19:27;38.00;28.60
34815;DHT22;21030;53.912;15.214;2023-08-31T06:21:55;37.80;28.80
34815;DHT22;21030;53.912;15.214;2023-08-31T06:24:22;37.50;29.20
34815;DHT22;21030;53.912;15.214;2023-08-31T06:26:49;37.20;29.50
34815;DHT22;21030;53.912;15.214;2023-08-31T06:29:16;36.90;29.70
34815;DHT22;21030;53.912;15.214;2023-08-31T06:31:43;36.30;30.30
34815;DHT22;21030;53.912;15.214;2023-08-31T06:34:10;36.20;30.80
34815;DHT22;21030;53.912;15.214;2023-08-31T06:36:37;35.70;31.40
34815;DHT22;21030;53.912;15.214;2023-08-31T06:39:06;36.00;31.50
34815;DHT22;21030;53.912;15.214;2023-08-31T06:41:33;35.90;31.00
34815;DHT22;21030;53.912;15.214;2023-08-31T06:44:02;35.60;31.40
34815;DHT22;21030;53.912;15.214;2023-08-31T06:46:29;35.30;31.80
34815;DHT22;21030;53.912;15.214;2023-08-31T06:48:56;34.90;32.50
34815;DHT22;21030;53.912;15.214;2023-08-31T06:51:23;35.10;32.70
34815;DHT22;21030;53.912;15.214;2023-08-31T06:53:51;35.40;32.80
34815;DHT22;21030;53.912;15.214;2023-08-31T06:56:18;36.00;31.80
34815;DHT22;21030;53.912;15.214;2023-08-31T06:58:45;35.50;31.80
34815;DHT22;21030;53.912;15.214;2023-08-31T07:01:13;35.10;32.50
34815;DHT22;21030;53.912;15.214;2023-08-31T07:03:40;35.20;32.70
34815;DHT22;21030;53.912;15.214;2023-08-31T07:06:07;34.70;33.10
34815;DHT22;21030;53.912;15.214;2023-08-31T07:08:34;34.00;34.00
34815;DHT22;21030;53.912;15.214;2023-08-31T07:11:03;34.60;33.80
34815;DHT22;21030;53.912;15.214;2023-08-31T07:13:30;34.10;34.00
34815;DHT22;21030;53.912;15.214;2023-08-31T07:15:57;34.00;34.20
34815;DHT22;21030;53.912;15.214;2023-08-31T07:18:24;34.20;34.40
34815;DHT22;21030;53.912;15.214;2023-08-31T07:20:51;34.00;34.40
34815;DHT22;21030;53.912;15.214;2023-08-31T07:23:18;33.90;34.60
34815;DHT22;21030;53.912;15.214;2023-08-31T07:25:45;33.00;35.50
34815;DHT22;21030;53.912;15.214;2023-08-31T07:28:12;33.10;36.50
34815;DHT22;21030;53.912;15.214;2023-08-31T07:30:39;32.90;36.40
34815;DHT22;21030;53.912;15.214;2023-08-31T07:33:06;31.90;37.40
34815;DHT22;21030;53.912;15.214;2023-08-31T07:35:53;31.50;38.80
34815;DHT22;21030;53.912;15.214;2023-08-31T07:38:20;31.30;39.40
34815;DHT22;21030;53.912;15.214;2023-08-31T07:40:48;31.30;39.40
34815;DHT22;21030;53.912;15.214;2023-08-31T07:43:17;30.70;40.30
34815;DHT22;21030;53.912;15.214;2023-08-31T07:45:45;31.20;40.50
34815;DHT22;21030;53.912;15.214;2023-08-31T07:48:11;31.60;40.20
34815;DHT22;21030;53.912;15.214;2023-08-31T07:50:42;32.30;39.40
34815;DHT22;21030;53.912;15.214;2023-08-31T07:53:09;32.40;38.50
34815;DHT22;21030;53.912;15.214;2023-08-31T07:55:36;32.30;38.30
34815;DHT22;21030;53.912;15.214;2023-08-31T07:58:03;32.60;37.80
34815;DHT22;21030;53.912;15.214;2023-08-31T08:00:31;32.90;36.80
34815;DHT22;21030;53.912;15.214;2023-08-31T08:02:58;33.00;37.00
34815;DHT22;21030;53.912;15.214;2023-08-31T08:05:25;33.70;36.50
34815;DHT22;21030;53.912;15.214;2023-08-31T08:07:52;34.60;35.80
34815;DHT22;21030;53.912;15.214;2023-08-31T08:10:19;35.40;34.70
34815;DHT22;21030;53.912;15.214;2023-08-31T08:12:46;36.00;34.30
34815;DHT22;21030;53.912;15.214;2023-08-31T08:15:13;36.10;33.30
34815;DHT22;21030;53.912;15.214;2023-08-31T08:17:41;35.80;33.00
34815;DHT22;21030;53.912;15.214;2023-08-31T08:20:08;35.30;33.40
34815;DHT22;21030;53.912;15.214;2023-08-31T08:22:36;35.00;34.10
34815;DHT22;21030;53.912;15.214;2023-08-31T08:25:03;34.50;34.40
34815;DHT22;21030;53.912;15.214;2023-08-31T08:27:31;34.40;35.10
34815;DHT22;21030;53.912;15.214;2023-08-31T08:29:59;34.90;34.80
34815;DHT22;21030;53.912;15.214;2023-08-31T08:32:27;35.10;34.20
34815;DHT22;21030;53.912;15.214;2023-08-31T08:34:54;35.30;35.00
34815;DHT22;21030;53.912;15.214;2023-08-31T08:37:21;34.70;34.60
34815;DHT22;21030;53.912;15.214;2023-08-31T08:39:49;33.90;34.90
34815;DHT22;21030;53.912;15.214;2023-08-31T08:42:19;33.40;35.70
34815;DHT22;21030;53.912;15.214;2023-08-31T08:44:49;33.80;36.10
34815;DHT22;21030;53.912;15.214;2023-08-31T08:47:17;33.50;36.40
34815;DHT22;21030;53.912;15.214;2023-08-31T08:49:44;34.10;35.70
34815;DHT22;21030;53.912;15.214;2023-08-31T08:52:14;33.80;36.00
34815;DHT22;21030;53.912;15.214;2023-08-31T08:54:42;34.20;35.50
34815;DHT22;21030;53.912;15.214;2023-08-31T08:57:09;33.90;35.60
34815;DHT22;21030;53.912;15.214;2023-08-31T08:59:36;34.10;36.20
34815;DHT22;21030;53.912;15.214;2023-08-31T09:02:03;33.90;35.70
34815;DHT22;21030;53.912;15.214;2023-08-31T09:04:31;34.60;35.90
34815;DHT22;21030;53.912;15.214;2023-08-31T09:06:58;35.40;34.70
34815;DHT22;21030;53.912;15.214;2023-08-31T09:09:25;35.20;33.90
34815;DHT22;21030;53.912;15.214;2023-08-31T09:11:53;35.20;34.40
34815;DHT22;21030;53.912;15.214;2023-08-31T09:14:22;34.90;34.50
34815;DHT22;21030;53.912;15.214;2023-08-31T09:16:51;34.90;34.40
34815;DHT22;21030;53.912;15.214;2023-08-31T09:19:23;34.20;34.50
34815;DHT22;21030;53.912;15.214;2023-08-31T09:21:56;33.40;35.50
34815;DHT22;21030;53.912;15.214;2023-08-31T09:24:23;33.80;35.80
34815;DHT22;21030;53.912;15.214;2023-08-31T09:26:56;34.40;35.60
34815;DHT22;21030;53.912;15.214;2023-08-31T09:29:24;34.20;34.90
34815;DHT22;21030;53.912;15.214;2023-08-31T09:31:51;34.20;35.60
34815;DHT22;21030;53.912;15.214;2023-08-31T09:34:18;33.70;35.80
34815;DHT22;21030;53.912;15.214;2023-08-31T09:36:45;34.10;36.00
34815;DHT22;21030;53.912;15.214;2023-08-31T09:39:14;34.30;35.30
34815;DHT22;21030;53.912;15.214;2023-08-31T09:41:54;34.20;34.70
34815;DHT22;21030;53.912;15.214;2023-08-31T09:44:22;34.60;34.80
34815;DHT22;21030;53.912;15.214;2023-08-31T09:46:49;34.40;34.60
34815;DHT22;21030;53.912;15.214;2023-08-31T09:49:17;34.70;33.70
34815;DHT22;21030;53.912;15.214;2023-08-31T09:51:45;35.00;33.60
34815;DHT22;21030;53.912;15.214;2023-08-31T09:54:20;33.90;34.50
34815;DHT22;21030;53.912;15.214;2023-08-31T09:56:48;33.60;35.10
34815;DHT22;21030;53.912;15.214;2023-08-31T09:59:16;34.00;35.20
34815;DHT22;21030;53.912;15.214;2023-08-31T10:01:45;34.40;35.10
34815;DHT22;21030;53.912;15.214;2023-08-31T10:04:13;35.40;34.20
34815;DHT22;21030;53.912;15.214;2023-08-31T10:06:41;36.20;33.20
34815;DHT22;21030;53.912;15.214;2023-08-31T10:09:09;37.50;31.90
34815;DHT22;21030;53.912;15.214;2023-08-31T10:11:39;37.60;30.40
34815;DHT22;21030;53.912;15.214;2023-08-31T10:14:07;37.80;30.10
34815;DHT22;21030;53.912;15.214;2023-08-31T10:16:36;38.00;29.40
34815;DHT22;21030;53.912;15.214;2023-08-31T10:19:07;38.00;29.20
34815;DHT22;21030;53.912;15.214;2023-08-31T10:21:34;37.00;29.40
34815;DHT22;21030;53.912;15.214;2023-08-31T10:24:02;36.70;30.70
34815;DHT22;21030;53.912;15.214;2023-08-31T10:26:31;36.80;30.80
34815;DHT22;21030;53.912;15.214;2023-08-31T10:28:59;36.40;30.00
34815;DHT22;21030;53.912;15.214;2023-08-31T10:31:31;35.70;30.90
34815;DHT22;21030;53.912;15.214;2023-08-31T10:34:00;35.20;30.90
34815;DHT22;21030;53.912;15.214;2023-08-31T10:37:00;34.50;32.40
34815;DHT22;21030;53.912;15.214;2023-08-31T10:39:40;35.70;32.40
34815;DHT22;21030;53.912;15.214;2023-08-31T10:42:07;35.80;31.10
34815;DHT22;21030;53.912;15.214;2023-08-31T10:44:34;35.70;30.90
34815;DHT22;21030;53.912;15.214;2023-08-31T10:47:03;35.90;30.80
34815;DHT22;21030;53.912;15.214;2023-08-31T10:49:31;36.10;30.80
34815;DHT22;21030;53.912;15.214;2023-08-31T10:52:18;36.20;30.80
34815;DHT22;21030;53.912;15.214;2023-08-31T10:55:06;36.70;30.30
34815;DHT22;21030;53.912;15.214;2023-08-31T10:57:35;37.00;30.10
34815;DHT22;21030;53.912;15.214;2023-08-31T11:00:03;36.60;29.60
34815;DHT22;21030;53.912;15.214;2023-08-31T11:02:43;36.50;30.60
34815;DHT22;21030;53.912;15.214;2023-08-31T11:05:17;36.30;30.00
34815;DHT22;21030;53.912;15.214;2023-08-31T11:07:50;35.30;30.90
34815;DHT22;21030;53.912;15.214;2023-08-31T11:10:24;35.20;31.50
34815;DHT22;21030;53.912;15.214;2023-08-31T11:12:55;34.90;31.60
34815;DHT22;21030;53.912;15.214;2023-08-31T11:15:27;34.80;31.70
34815;DHT22;21030;53.912;15.214;2023-08-31T11:17:54;35.20;31.30
34815;DHT22;21030;53.912;15.214;2023-08-31T11:20:23;36.10;31.40
34815;DHT22;21030;53.912;15.214;2023-08-31T11:22:55;36.80;30.50
34815;DHT22;21030;53.912;15.214;2023-08-31T11:25:23;35.60;30.00
34815;DHT22;21030;53.912;15.214;2023-08-31T11:27:55;35.60;31.10
34815;DHT22;21030;53.912;15.214;2023-08-31T11:30:24;35.40;30.90
34815;DHT22;21030;53.912;15.214;2023-08-31T11:32:52;35.30;30.50
34815;DHT22;21030;53.912;15.214;2023-08-31T11:35:23;35.90;30.00
34815;DHT22;21030;53.912;15.214;2023-08-31T11:37:56;36.50;29.90
34815;DHT22;21030;53.912;15.214;2023-08-31T11:40:23;36.50;29.60
34815;DHT22;21030;53.912;15.214;2023-08-31T11:42:52;35.40;30.60
34815;DHT22;21030;53.912;15.214;2023-08-31T11:45:22;35.70;31.30
34815;DHT22;21030;53.912;15.214;2023-08-31T11:47:49;35.80;30.60
34815;DHT22;21030;53.912;15.214;2023-08-31T11:50:18;35.00;31.70
34815;DHT22;21030;53.912;15.214;2023-08-31T11:52:46;35.00;31.80
34815;DHT22;21030;53.912;15.214;2023-08-31T11:55:15;35.60;31.60
34815;DHT22;21030;53.912;15.214;2023-08-31T11:57:51;36.70;31.50
34815;DHT22;21030;53.912;15.214;2023-08-31T12:00:20;36.70;29.50
34815;DHT22;21030;53.912;15.214;2023-08-31T12:03:00;36.70;29.00
34815;DHT22;21030;53.912;15.214;2023-08-31T12:05:28;37.90;29.40
34815;DHT22;21030;53.912;15.214;2023-08-31T12:07:56;38.20;29.30
34815;DHT22;21030;53.912;15.214;2023-08-31T12:10:25;38.50;28.50
34815;DHT22;21030;53.912;15.214;2023-08-31T12:12:53;38.50;28.40
34815;DHT22;21030;53.912;15.214;2023-08-31T12:15:23;38.80;28.30
34815;DHT22;21030;53.912;15.214;2023-08-31T12:17:56;38.30;28.30
34815;DHT22;21030;53.912;15.214;2023-08-31T12:20:26;38.30;28.40
34815;DHT22;21030;53.912;15.214;2023-08-31T12:22:55;37.90;28.60
34815;DHT22;21030;53.912;15.214;2023-08-31T12:25:23;37.90;29.10
34815;DHT22;21030;53.912;15.214;2023-08-31T12:27:50;37.70;28.90
34815;DHT22;21030;53.912;15.214;2023-08-31T12:30:17;37.90;29.10
34815;DHT22;21030;53.912;15.214;2023-08-31T12:32:44;38.20;29.30
34815;DHT22;21030;53.912;15.214;2023-08-31T12:35:11;38.70;29.60
34815;DHT22;21030;53.912;15.214;2023-08-31T12:37:41;38.40;29.00
34815;DHT22;21030;53.912;15.214;2023-08-31T12:40:08;38.00;29.00
34815;DHT22;21030;53.912;15.214;2023-08-31T12:42:36;37.40;29.60
34815;DHT22;21030;53.912;15.214;2023-08-31T12:45:04;37.20;30.20
34815;DHT22;21030;53.912;15.214;2023-08-31T12:47:34;36.80;30.10
34815;DHT22;21030;53.912;15.214;2023-08-31T12:50:02;36.30;30.80
34815;DHT22;21030;53.912;15.214;2023-08-31T12:52:30;36.90;30.70
34815;DHT22;21030;53.912;15.214;2023-08-31T12:54:57;36.20;30.00
34815;DHT22;21030;53.912;15.214;2023-08-31T12:57:24;35.50;31.10
34815;DHT22;21030;53.912;15.214;2023-08-31T12:59:51;35.80;32.40
34815;DHT22;21030;53.912;15.214;2023-08-31T13:02:18;36.40;31.70
34815;DHT22;21030;53.912;15.214;2023-08-31T13:04:47;36.70;31.70
34815;DHT22;21030;53.912;15.214;2023-08-31T13:07:14;37.00;31.30
34815;DHT22;21030;53.912;15.214;2023-08-31T13:09:41;37.10;30.50
34815;DHT22;21030;53.912;15.214;2023-08-31T13:12:08;37.20;30.10
34815;DHT22;21030;53.912;15.214;2023-08-31T13:14:35;37.40;29.90
34815;DHT22;21030;53.912;15.214;2023-08-31T13:17:02;37.20;29.50
34815;DHT22;21030;53.912;15.214;2023-08-31T13:19:30;37.20;29.50
34815;DHT22;21030;53.912;15.214;2023-08-31T13:21:57;37.50;29.60
34815;DHT22;21030;53.912;15.214;2023-08-31T13:24:24;37.70;29.20
34815;DHT22;21030;53.912;15.214;2023-08-31T13:26:52;37.80;29.10
34815;DHT22;21030;53.912;15.214;2023-08-31T13:29:19;37.50;28.90
34815;DHT22;21030;53.912;15.214;2023-08-31T13:31:46;37.60;28.70
34815;DHT22;21030;53.912;15.214;2023-08-31T13:34:13;38.00;28.90
34815;DHT22;21030;53.912;15.214;2023-08-31T13:36:42;38.20;28.80
34815;DHT22;21030;53.912;15.214;2023-08-31T13:39:09;38.40;28.70
34815;DHT22;21030;53.912;15.214;2023-08-31T13:41:36;38.40;28.40
34815;DHT22;21030;53.912;15.214;2023-08-31T13:44:04;38.20;28.30
34815;DHT22;21030;53.912;15.214;2023-08-31T13:46:31;38.30;28.40
34815;DHT22;21030;53.912;15.214;2023-08-31T13:48:58;38.30;28.50
34815;DHT22;21030;53.912;15.214;2023-08-31T13:51:25;38.50;28.60
34815;DHT22;21030;53.912;15.214;2023-08-31T13:53:52;38.70;28.60
34815;DHT22;21030;53.912;15.214;2023-08-31T13:56:19;38.50;28.80
34815;DHT22;21030;53.912;15.214;2023-08-31T13:58:48;38.60;28.50
34815;DHT22;21030;53.912;15.214;2023-08-31T14:01:15;38.60;28.50
34815;DHT22;21030;53.912;15.214;2023-08-31T14:03:43;38.60;28.60
34815;DHT22;21030;53.912;15.214;2023-08-31T14:06:10;38.50;28.60
34815;DHT22;21030;53.912;15.214;2023-08-31T14:08:40;38.40;28.50
34815;DHT22;21030;53.912;15.214;2023-08-31T14:11:07;38.20;28.70
34815;DHT22;21030;53.912;15.214;2023-08-31T14:13:34;38.30;28.80
34815;DHT22;21030;53.912;15.214;2023-08-31T14:16:01;38.50;28.60
34815;DHT22;21030;53.912;15.214;2023-08-31T14:18:29;38.90;28.20
34815;DHT22;21030;53.912;15.214;2023-08-31T14:20:58;38.30;28.00
34815;DHT22;21030;53.912;15.214;2023-08-31T14:23:27;38.60;28.20
34815;DHT22;21030;53.912;15.214;2023-08-31T14:25:54;39.00;28.10
34815;DHT22;21030;53.912;15.214;2023-08-31T14:28:21;39.60;27.50
34815;DHT22;21030;53.912;15.214;2023-08-31T14:30:48;40.00;27.10
34815;DHT22;21030;53.912;15.214;2023-08-31T14:33:15;40.40;26.70
34815;DHT22;21030;53.912;15.214;2023-08-31T14:35:42;40.60;26.50
34815;DHT22;21030;53.912;15.214;2023-08-31T14:38:10;40.70;26.60
34815;DHT22;21030;53.912;15.214;2023-08-31T14:40:41;40.20;26.80
34815;DHT22;21030;53.912;15.214;2023-08-31T14:43:09;39.50;27.30
34815;DHT22;21030;53.912;15.214;2023-08-31T14:45:37;39.50;27.40
34815;DHT22;21030;53.912;15.214;2023-08-31T14:48:05;39.60;27.80
34815;DHT22;21030;53.912;15.214;2023-08-31T14:50:32;39.30;28.60
34815;DHT22;21030;53.912;15.214;2023-08-31T14:52:59;39.10;28.00
34815;DHT22;21030;53.912;15.214;2023-08-31T14:55:26;38.40;28.30
34815;DHT22;21030;53.912;15.214;2023-08-31T14:57:53;38.30;28.70
34815;DHT22;21030;53.912;15.214;2023-08-31T15:00:20;36.70;29.60
34815;DHT22;21030;53.912;15.214;2023-08-31T15:02:47;37.20;30.10
34815;DHT22;21030;53.912;15.214;2023-08-31T15:05:15;36.80;30.00
34815;DHT22;21030;53.912;15.214;2023-08-31T15:07:42;37.30;29.90
34815;DHT22;21030;53.912;15.214;2023-08-31T15:10:09;37.00;29.60
34815;DHT22;21030;53.912;15.214;2023-08-31T15:12:36;37.10;29.70
34815;DHT22;21030;53.912;15.214;2023-08-31T15:15:05;36.90;29.50
34815;DHT22;21030;53.912;15.214;2023-08-31T15:17:33;37.00;29.40
34815;DHT22;21030;53.912;15.214;2023-08-31T15:20:00;36.40;29.60
34815;DHT22;21030;53.912;15.214;2023-08-31T15:22:27;36.80;29.60
34815;DHT22;21030;53.912;15.214;2023-08-31T15:24:54;36.70;29.60